sensor_id;sensor_type;location;lat;lon;timestamp;P1;durP1;ratioP1;P2;durP2;ratioP2
8803;SDS011;4438;50.890;4.726;2023-01-10T00:01:24;10.63;;;3.67;;
8803;SDS011;4438;50.890;4.726;2023-01-10T00:03:50;11.03;;;3.87;;
8803;SDS011;4438;50.890;4.726;2023-01-10T00:06:17;12.17;;;3.30;;
8803;SDS011;4438;50.890;4.726;2023-01-10T00:08:43;10.43;;;2.80;;
8803;SDS011;4438;50.890;4.726;2023-01-10T00:11:09;9.30;;;3.30;;
8803;SDS011;4438;50.890;4.726;2023-01-10T00:13:54;10.37;;;4.17;;
8803;SDS011;4438;50.890;4.726;2023-01-10T00:16:20;8.03;;;3.50;;
8803;SDS011;4438;50.890;4.726;2023-01-10T00:18:47;13.63;;;3.90;;
8803;SDS011;4438;50.890;4.726;2023-01-10T00:21:13;10.00;;;4.47;;
8803;SDS011;4438;50.890;4.726;2023-01-10T00:23:42;10.20;;;4.53;;
8803;SDS011;4438;50.890;4.726;2023-01-10T00:26:09;9.53;;;3.47;;
8803;SDS011;4438;50.890;4.726;2023-01-10T00:28:35;8.37;;;3.67;;
8803;SDS011;4438;50.890;4.726;2023-01-10T00:31:03;9.13;;;3.77;;
8803;SDS011;4438;50.890;4.726;2023-01-10T00:33:39;11.63;;;3.40;;
8803;SDS011;4438;50.890;4.726;2023-01-10T00:36:06;9.83;;;3.40;;
8803;SDS011;4438;50.890;4.726;2023-01-10T00:38:32;8.20;;;3.63;;
8803;SDS011;4438;50.890;4.726;2023-01-10T00:40:59;8.70;;;3.50;;
8803;SDS011;4438;50.890;4.726;2023-01-10T00:43:25;8.47;;;3.37;;
8803;SDS011;4438;50.890;4.726;2023-01-10T00:46:10;10.50;;;3.93;;
8803;SDS011;4438;50.890;4.726;2023-01-10T00:48:36;7.70;;;3.53;;
8803;SDS011;4438;50.890;4.726;2023-01-10T00:51:03;8.77;;;3.13;;
8803;SDS011;4438;50.890;4.726;2023-01-10T00:53:29;9.30;;;3.83;;
8803;SDS011;4438;50.890;4.726;2023-01-10T00:55:55;8.33;;;3.30;;
8803;SDS011;4438;50.890;4.726;2023-01-10T00:58:22;12.37;;;3.80;;
8803;SDS011;4438;50.890;4.726;2023-01-10T01:00:48;9.00;;;3.20;;
8803;SDS011;4438;50.890;4.726;2023-01-10T01:03:15;9.63;;;3.70;;
8803;SDS011;4438;50.890;4.726;2023-01-10T01:05:42;11.37;;;3.37;;
8803;SDS011;4438;50.890;4.726;2023-01-10T01:08:09;9.47;;;3.37;;
8803;SDS011;4438;50.890;4.726;2023-01-10T01:10:35;11.30;;;3.67;;
8803;SDS011;4438;50.890;4.726;2023-01-10T01:13:09;8.00;;;3.30;;
8803;SDS011;4438;50.890;4.726;2023-01-10T01:15:35;10.90;;;4.40;;
8803;SDS011;4438;50.890;4.726;2023-01-10T01:18:02;10.97;;;3.37;;
8803;SDS011;4438;50.890;4.726;2023-01-10T01:20:28;8.30;;;3.87;;
8803;SDS011;4438;50.890;4.726;2023-01-10T01:22:55;11.67;;;3.93;;
8803;SDS011;4438;50.890;4.726;2023-01-10T01:25:21;11.47;;;4.20;;
8803;SDS011;4438;50.890;4.726;2023-01-10T01:27:47;9.13;;;3.87;;
8803;SDS011;4438;50.890;4.726;2023-01-10T01:30:13;11.07;;;3.50;;
8803;SDS011;4438;50.890;4.726;2023-01-10T01:32:40;12.30;;;4.30;;
8803;SDS011;4438;50.890;4.726;2023-01-10T01:35:07;11.73;;;3.70;;
8803;SDS011;4438;50.890;4.726;2023-01-10T01:37:33;10.90;;;3.70;;
8803;SDS011;4438;50.890;4.726;2023-01-10T01:39:59;11.87;;;3.80;;
8803;SDS011;4438;50.890;4.726;2023-01-10T01:42:27;11.37;;;3.83;;
8803;SDS011;4438;50.890;4.726;2023-01-10T01:45:17;13.00;;;4.17;;
8803;SDS011;4438;50.890;4.726;2023-01-10T01:50:26;11.50;;;3.97;;
8803;SDS011;4438;50.890;4.726;2023-01-10T01:52:56;11.53;;;3.60;;
8803;SDS011;4438;50.890;4.726;2023-01-10T01:55:23;14.70;;;4.40;;
8803;SDS011;4438;50.890;4.726;2023-01-10T01:57:51;12.13;;;3.70;;
8803;SDS011;4438;50.890;4.726;2023-01-10T02:00:17;10.23;;;3.30;;
8803;SDS011;4438;50.890;4.726;2023-01-10T02:02:53;11.53;;;3.37;;
8803;SDS011;4438;50.890;4.726;2023-01-10T02:05:21;11.63;;;3.47;;
8803;SDS011;4438;50.890;4.726;2023-01-10T02:07:48;10.80;;;3.67;;
8803;SDS011;4438;50.890;4.726;2023-01-10T02:10:17;14.97;;;4.07;;
8803;SDS011;4438;50.890;4.726;2023-01-10T02:12:44;14.90;;;3.60;;
8803;SDS011;4438;50.890;4.726;2023-01-10T02:15:12;11.70;;;3.57;;
8803;SDS011;4438;50.890;4.726;2023-01-10T02:17:39;15.77;;;4.10;;
8803;SDS011;4438;50.890;4.726;2023-01-10T02:20:06;12.57;;;3.93;;
8803;SDS011;4438;50.890;4.726;2023-01-10T02:30:43;14.57;;;4.43;;
8803;SDS011;4438;50.890;4.726;2023-01-10T02:33:22;9.67;;;3.60;;
8803;SDS011;4438;50.890;4.726;2023-01-10T02:36:07;10.77;;;3.53;;
8803;SDS011;4438;50.890;4.726;2023-01-10T02:41:24;9.20;;;3.53;;
8803;SDS011;4438;50.890;4.726;2023-01-10T02:44:16;12.33;;;4.03;;
8803;SDS011;4438;50.890;4.726;2023-01-10T02:46:38;16.30;;;4.10;;
8803;SDS011;4438;50.890;4.726;2023-01-10T02:49:05;9.93;;;3.40;;
8803;SDS011;4438;50.890;4.726;2023-01-10T02:51:31;19.77;;;4.47;;
8803;SDS011;4438;50.890;4.726;2023-01-10T02:56:59;12.73;;;4.10;;
8803;SDS011;4438;50.890;4.726;2023-01-10T02:59:25;13.50;;;3.93;;
8803;SDS011;4438;50.890;4.726;2023-01-10T03:06:54;9.73;;;3.43;;
8803;SDS011;4438;50.890;4.726;2023-01-10T03:11:50;14.50;;;4.30;;
8803;SDS011;4438;50.890;4.726;2023-01-10T03:14:23;8.93;;;3.50;;
8803;SDS011;4438;50.890;4.726;2023-01-10T03:16:55;11.80;;;3.77;;
8803;SDS011;4438;50.890;4.726;2023-01-10T03:19:23;15.73;;;4.43;;
8803;SDS011;4438;50.890;4.726;2023-01-10T03:21:52;11.20;;;3.70;;
8803;SDS011;4438;50.890;4.726;2023-01-10T03:24:21;10.83;;;4.20;;
8803;SDS011;4438;50.890;4.726;2023-01-10T03:26:54;14.83;;;4.00;;
8803;SDS011;4438;50.890;4.726;2023-01-10T03:29:30;17.53;;;4.70;;
8803;SDS011;4438;50.890;4.726;2023-01-10T03:31:59;14.00;;;4.17;;
8803;SDS011;4438;50.890;4.726;2023-01-10T03:34:25;15.17;;;3.90;;
8803;SDS011;4438;50.890;4.726;2023-01-10T03:39:41;15.53;;;3.77;;
8803;SDS011;4438;50.890;4.726;2023-01-10T03:42:11;15.10;;;3.20;;
8803;SDS011;4438;50.890;4.726;2023-01-10T03:44:48;12.67;;;3.90;;
8803;SDS011;4438;50.890;4.726;2023-01-10T03:47:18;14.17;;;3.43;;
8803;SDS011;4438;50.890;4.726;2023-01-10T03:49:49;15.33;;;3.87;;
8803;SDS011;4438;50.890;4.726;2023-01-10T03:52:18;13.73;;;4.53;;
8803;SDS011;4438;50.890;4.726;2023-01-10T03:54:45;14.20;;;4.17;;
8803;SDS011;4438;50.890;4.726;2023-01-10T03:57:20;17.90;;;4.27;;
8803;SDS011;4438;50.890;4.726;2023-01-10T03:59:47;12.10;;;4.07;;
8803;SDS011;4438;50.890;4.726;2023-01-10T04:02:14;16.83;;;4.13;;
8803;SDS011;4438;50.890;4.726;2023-01-10T04:04:40;11.93;;;4.27;;
8803;SDS011;4438;50.890;4.726;2023-01-10T04:07:06;14.53;;;3.73;;
8803;SDS011;4438;50.890;4.726;2023-01-10T04:09:32;21.87;;;4.20;;
8803;SDS011;4438;50.890;4.726;2023-01-10T04:11:59;18.50;;;4.37;;
8803;SDS011;4438;50.890;4.726;2023-01-10T04:14:25;11.77;;;3.77;;
8803;SDS011;4438;50.890;4.726;2023-01-10T04:16:51;13.30;;;4.13;;
8803;SDS011;4438;50.890;4.726;2023-01-10T04:19:18;15.33;;;4.00;;
8803;SDS011;4438;50.890;4.726;2023-01-10T04:21:44;14.10;;;3.87;;
8803;SDS011;4438;50.890;4.726;2023-01-10T04:24:10;13.53;;;3.93;;
8803;SDS011;4438;50.890;4.726;2023-01-10T04:26:36;11.10;;;3.57;;
8803;SDS011;4438;50.890;4.726;2023-01-10T04:29:02;15.37;;;4.43;;
8803;SDS011;4438;50.890;4.726;2023-01-10T04:31:30;12.57;;;3.90;;
8803;SDS011;4438;50.890;4.726;2023-01-10T04:33:56;15.63;;;4.33;;
8803;SDS011;4438;50.890;4.726;2023-01-10T04:36:22;12.97;;;3.63;;
8803;SDS011;4438;50.890;4.726;2023-01-10T04:38:48;17.27;;;3.93;;
8803;SDS011;4438;50.890;4.726;2023-01-10T04:41:15;15.17;;;3.97;;
8803;SDS011;4438;50.890;4.726;2023-01-10T04:43:41;13.77;;;3.77;;
8803;SDS011;4438;50.890;4.726;2023-01-10T04:46:07;10.87;;;3.60;;
8803;SDS011;4438;50.890;4.726;2023-01-10T04:48:33;14.70;;;3.73;;
8803;SDS011;4438;50.890;4.726;2023-01-10T04:51:01;14.07;;;3.67;;
8803;SDS011;4438;50.890;4.726;2023-01-10T04:53:27;10.13;;;3.83;;
8803;SDS011;4438;50.890;4.726;2023-01-10T04:55:53;14.97;;;4.27;;
8803;SDS011;4438;50.890;4.726;2023-01-10T04:58:19;9.57;;;3.67;;
8803;SDS011;4438;50.890;4.726;2023-01-10T05:00:45;13.90;;;3.70;;
8803;SDS011;4438;50.890;4.726;2023-01-10T05:03:11;13.37;;;4.27;;
8803;SDS011;4438;50.890;4.726;2023-01-10T05:05:38;14.93;;;4.50;;
8803;SDS011;4438;50.890;4.726;2023-01-10T05:08:04;17.47;;;4.50;;
8803;SDS011;4438;50.890;4.726;2023-01-10T05:10:30;15.73;;;4.83;;
8803;SDS011;4438;50.890;4.726;2023-01-10T05:12:56;17.17;;;4.03;;
8803;SDS011;4438;50.890;4.726;2023-01-10T05:15:22;11.60;;;3.87;;
8803;SDS011;4438;50.890;4.726;2023-01-10T05:17:48;12.17;;;4.17;;
8803;SDS011;4438;50.890;4.726;2023-01-10T05:20:15;11.47;;;3.73;;
8803;SDS011;4438;50.890;4.726;2023-01-10T05:22:41;16.20;;;3.97;;
8803;SDS011;4438;50.890;4.726;2023-01-10T05:25:07;14.30;;;3.57;;
8803;SDS011;4438;50.890;4.726;2023-01-10T05:27:34;15.77;;;3.73;;
8803;SDS011;4438;50.890;4.726;2023-01-10T05:30:00;12.40;;;3.47;;
8803;SDS011;4438;50.890;4.726;2023-01-10T05:32:29;15.03;;;3.63;;
8803;SDS011;4438;50.890;4.726;2023-01-10T05:34:55;16.57;;;4.47;;
8803;SDS011;4438;50.890;4.726;2023-01-10T05:37:21;13.87;;;3.80;;
8803;SDS011;4438;50.890;4.726;2023-01-10T05:39:47;15.57;;;4.13;;
8803;SDS011;4438;50.890;4.726;2023-01-10T05:42:13;17.20;;;4.03;;
8803;SDS011;4438;50.890;4.726;2023-01-10T05:44:40;16.63;;;4.53;;
8803;SDS011;4438;50.890;4.726;2023-01-10T05:47:06;15.30;;;3.37;;
8803;SDS011;4438;50.890;4.726;2023-01-10T05:49:32;15.07;;;4.00;;
8803;SDS011;4438;50.890;4.726;2023-01-10T05:51:58;17.03;;;4.50;;
8803;SDS011;4438;50.890;4.726;2023-01-10T05:54:24;17.43;;;4.20;;
8803;SDS011;4438;50.890;4.726;2023-01-10T05:56:50;13.83;;;3.90;;
8803;SDS011;4438;50.890;4.726;2023-01-10T05:59:16;17.33;;;4.37;;
8803;SDS011;4438;50.890;4.726;2023-01-10T06:01:42;14.83;;;3.47;;
8803;SDS011;4438;50.890;4.726;2023-01-10T06:04:08;21.20;;;3.87;;
8803;SDS011;4438;50.890;4.726;2023-01-10T06:06:34;16.20;;;4.10;;
8803;SDS011;4438;50.890;4.726;2023-01-10T06:09:00;15.37;;;3.90;;
8803;SDS011;4438;50.890;4.726;2023-01-10T06:11:26;15.77;;;4.20;;
8803;SDS011;4438;50.890;4.726;2023-01-10T06:13:56;14.10;;;3.70;;
8803;SDS011;4438;50.890;4.726;2023-01-10T06:16:22;12.63;;;3.80;;
8803;SDS011;4438;50.890;4.726;2023-01-10T06:18:49;13.13;;;4.40;;
8803;SDS011;4438;50.890;4.726;2023-01-10T06:21:15;15.30;;;3.83;;
8803;SDS011;4438;50.890;4.726;2023-01-10T06:23:41;15.67;;;4.70;;
8803;SDS011;4438;50.890;4.726;2023-01-10T06:26:07;12.67;;;3.43;;
8803;SDS011;4438;50.890;4.726;2023-01-10T06:28:33;20.10;;;4.43;;
8803;SDS011;4438;50.890;4.726;2023-01-10T06:30:59;16.87;;;3.80;;
8803;SDS011;4438;50.890;4.726;2023-01-10T06:33:26;13.53;;;3.30;;
8803;SDS011;4438;50.890;4.726;2023-01-10T06:35:52;16.30;;;4.30;;
8803;SDS011;4438;50.890;4.726;2023-01-10T06:38:18;17.90;;;3.90;;
8803;SDS011;4438;50.890;4.726;2023-01-10T06:40:44;17.80;;;4.27;;
8803;SDS011;4438;50.890;4.726;2023-01-10T06:43:10;15.10;;;3.97;;
8803;SDS011;4438;50.890;4.726;2023-01-10T06:45:36;18.10;;;3.83;;
8803;SDS011;4438;50.890;4.726;2023-01-10T06:48:02;16.13;;;3.50;;
8803;SDS011;4438;50.890;4.726;2023-01-10T06:50:29;18.17;;;4.30;;
8803;SDS011;4438;50.890;4.726;2023-01-10T06:52:56;9.60;;;3.73;;
8803;SDS011;4438;50.890;4.726;2023-01-10T06:55:22;14.53;;;3.60;;
8803;SDS011;4438;50.890;4.726;2023-01-10T06:57:48;15.70;;;4.00;;
8803;SDS011;4438;50.890;4.726;2023-01-10T07:00:19;10.23;;;4.00;;
8803;SDS011;4438;50.890;4.726;2023-01-10T07:02:45;13.20;;;3.63;;
8803;SDS011;4438;50.890;4.726;2023-01-10T07:05:11;12.00;;;3.67;;
8803;SDS011;4438;50.890;4.726;2023-01-10T07:07:37;11.13;;;4.03;;
8803;SDS011;4438;50.890;4.726;2023-01-10T07:10:04;13.47;;;4.10;;
8803;SDS011;4438;50.890;4.726;2023-01-10T07:12:30;17.33;;;4.20;;
8803;SDS011;4438;50.890;4.726;2023-01-10T07:14:56;13.70;;;3.80;;
8803;SDS011;4438;50.890;4.726;2023-01-10T07:17:22;19.00;;;4.03;;
8803;SDS011;4438;50.890;4.726;2023-01-10T07:19:48;18.47;;;4.50;;
8803;SDS011;4438;50.890;4.726;2023-01-10T07:22:14;13.33;;;3.80;;
8803;SDS011;4438;50.890;4.726;2023-01-10T07:24:40;14.00;;;4.10;;
8803;SDS011;4438;50.890;4.726;2023-01-10T07:27:06;16.23;;;4.27;;
8803;SDS011;4438;50.890;4.726;2023-01-10T07:29:33;20.00;;;4.00;;
8803;SDS011;4438;50.890;4.726;2023-01-10T07:31:59;18.93;;;4.17;;
8803;SDS011;4438;50.890;4.726;2023-01-10T07:34:25;17.67;;;3.97;;
8803;SDS011;4438;50.890;4.726;2023-01-10T07:36:51;17.10;;;4.37;;
8803;SDS011;4438;50.890;4.726;2023-01-10T07:39:17;16.37;;;4.33;;
8803;SDS011;4438;50.890;4.726;2023-01-10T07:41:43;14.73;;;4.43;;
8803;SDS011;4438;50.890;4.726;2023-01-10T07:44:11;14.70;;;4.60;;
8803;SDS011;4438;50.890;4.726;2023-01-10T07:46:37;12.33;;;3.80;;
8803;SDS011;4438;50.890;4.726;2023-01-10T07:49:03;12.30;;;4.03;;
8803;SDS011;4438;50.890;4.726;2023-01-10T07:51:30;12.57;;;4.03;;
8803;SDS011;4438;50.890;4.726;2023-01-10T07:53:56;13.47;;;3.90;;
8803;SDS011;4438;50.890;4.726;2023-01-10T07:56:22;15.57;;;3.97;;
8803;SDS011;4438;50.890;4.726;2023-01-10T07:58:48;16.73;;;4.07;;
8803;SDS011;4438;50.890;4.726;2023-01-10T08:01:14;16.80;;;4.00;;
8803;SDS011;4438;50.890;4.726;2023-01-10T08:03:41;17.90;;;3.93;;
8803;SDS011;4438;50.890;4.726;2023-01-10T08:06:07;14.53;;;4.10;;
8803;SDS011;4438;50.890;4.726;2023-01-10T08:08:35;15.23;;;4.40;;
8803;SDS011;4438;50.890;4.726;2023-01-10T08:11:01;18.07;;;4.83;;
8803;SDS011;4438;50.890;4.726;2023-01-10T08:13:27;17.03;;;5.10;;
8803;SDS011;4438;50.890;4.726;2023-01-10T08:15:54;15.30;;;5.00;;
8803;SDS011;4438;50.890;4.726;2023-01-10T08:18:21;18.30;;;4.63;;
8803;SDS011;4438;50.890;4.726;2023-01-10T08:20:48;13.43;;;4.33;;
8803;SDS011;4438;50.890;4.726;2023-01-10T08:23:14;16.37;;;4.90;;
8803;SDS011;4438;50.890;4.726;2023-01-10T08:25:40;13.77;;;4.33;;
8803;SDS011;4438;50.890;4.726;2023-01-10T08:28:06;18.93;;;5.50;;
8803;SDS011;4438;50.890;4.726;2023-01-10T08:30:32;15.37;;;4.77;;
8803;SDS011;4438;50.890;4.726;2023-01-10T08:33:00;12.97;;;4.80;;
8803;SDS011;4438;50.890;4.726;2023-01-10T08:35:27;15.67;;;4.67;;
8803;SDS011;4438;50.890;4.726;2023-01-10T08:37:56;15.40;;;4.60;;
8803;SDS011;4438;50.890;4.726;2023-01-10T08:40:23;16.77;;;4.80;;
8803;SDS011;4438;50.890;4.726;2023-01-10T08:42:55;15.80;;;4.33;;
8803;SDS011;4438;50.890;4.726;2023-01-10T08:45:21;16.13;;;4.73;;
8803;SDS011;4438;50.890;4.726;2023-01-10T08:47:47;18.57;;;5.07;;
8803;SDS011;4438;50.890;4.726;2023-01-10T08:50:13;16.27;;;5.17;;
8803;SDS011;4438;50.890;4.726;2023-01-10T08:52:39;11.37;;;4.10;;
8803;SDS011;4438;50.890;4.726;2023-01-10T08:55:05;12.20;;;4.50;;
8803;SDS011;4438;50.890;4.726;2023-01-10T08:57:31;16.20;;;4.77;;
8803;SDS011;4438;50.890;4.726;2023-01-10T08:59:57;13.57;;;4.20;;
8803;SDS011;4438;50.890;4.726;2023-01-10T09:02:24;13.27;;;4.40;;
8803;SDS011;4438;50.890;4.726;2023-01-10T09:04:50;13.00;;;4.27;;
8803;SDS011;4438;50.890;4.726;2023-01-10T09:07:16;17.53;;;4.27;;
8803;SDS011;4438;50.890;4.726;2023-01-10T09:09:42;16.77;;;4.83;;
8803;SDS011;4438;50.890;4.726;2023-01-10T09:12:08;11.10;;;3.97;;
8803;SDS011;4438;50.890;4.726;2023-01-10T09:14:53;14.67;;;4.23;;
8803;SDS011;4438;50.890;4.726;2023-01-10T09:17:19;16.13;;;5.27;;
8803;SDS011;4438;50.890;4.726;2023-01-10T09:19:45;9.83;;;4.13;;
8803;SDS011;4438;50.890;4.726;2023-01-10T09:22:11;16.63;;;5.07;;
8803;SDS011;4438;50.890;4.726;2023-01-10T09:24:38;13.87;;;4.00;;
8803;SDS011;4438;50.890;4.726;2023-01-10T09:27:04;15.27;;;4.33;;
8803;SDS011;4438;50.890;4.726;2023-01-10T09:29:30;14.10;;;4.47;;
8803;SDS011;4438;50.890;4.726;2023-01-10T09:31:56;15.77;;;5.03;;
8803;SDS011;4438;50.890;4.726;2023-01-10T09:34:22;15.90;;;4.50;;
8803;SDS011;4438;50.890;4.726;2023-01-10T09:36:49;13.47;;;4.23;;
8803;SDS011;4438;50.890;4.726;2023-01-10T09:39:15;9.33;;;4.20;;
8803;SDS011;4438;50.890;4.726;2023-01-10T09:49:45;11.13;;;4.70;;
8803;SDS011;4438;50.890;4.726;2023-01-10T09:52:23;14.20;;;4.50;;
8803;SDS011;4438;50.890;4.726;2023-01-10T09:54:51;16.73;;;4.90;;
8803;SDS011;4438;50.890;4.726;2023-01-10T09:57:20;15.10;;;4.73;;
8803;SDS011;4438;50.890;4.726;2023-01-10T09:59:47;16.53;;;4.40;;
8803;SDS011;4438;50.890;4.726;2023-01-10T10:05:11;15.13;;;4.47;;
8803;SDS011;4438;50.890;4.726;2023-01-10T10:07:38;17.43;;;5.37;;
8803;SDS011;4438;50.890;4.726;2023-01-10T10:10:05;14.70;;;4.33;;
8803;SDS011;4438;50.890;4.726;2023-01-10T10:15:08;15.33;;;3.77;;
8803;SDS011;4438;50.890;4.726;2023-01-10T10:20:22;16.20;;;4.33;;
8803;SDS011;4438;50.890;4.726;2023-01-10T10:25:42;13.40;;;4.03;;
8803;SDS011;4438;50.890;4.726;2023-01-10T10:30:48;18.03;;;5.10;;
8803;SDS011;4438;50.890;4.726;2023-01-10T10:35:59;16.60;;;4.60;;
8803;SDS011;4438;50.890;4.726;2023-01-10T10:38:28;9.73;;;4.10;;
8803;SDS011;4438;50.890;4.726;2023-01-10T10:40:55;11.93;;;3.93;;
8803;SDS011;4438;50.890;4.726;2023-01-10T10:43:24;13.27;;;4.30;;
8803;SDS011;4438;50.890;4.726;2023-01-10T10:46:02;18.43;;;4.80;;
8803;SDS011;4438;50.890;4.726;2023-01-10T10:48:31;16.70;;;4.47;;
8803;SDS011;4438;50.890;4.726;2023-01-10T10:51:03;17.87;;;4.57;;
8803;SDS011;4438;50.890;4.726;2023-01-10T10:53:30;11.87;;;4.23;;
8803;SDS011;4438;50.890;4.726;2023-01-10T10:55:57;15.93;;;4.90;;
8803;SDS011;4438;50.890;4.726;2023-01-10T10:58:23;12.13;;;4.90;;
8803;SDS011;4438;50.890;4.726;2023-01-10T11:00:50;13.20;;;4.77;;
8803;SDS011;4438;50.890;4.726;2023-01-10T11:03:39;11.23;;;3.97;;
8803;SDS011;4438;50.890;4.726;2023-01-10T11:06:03;13.70;;;4.93;;
8803;SDS011;4438;50.890;4.726;2023-01-10T11:08:30;12.03;;;4.47;;
8803;SDS011;4438;50.890;4.726;2023-01-10T11:10:57;12.50;;;4.60;;
8803;SDS011;4438;50.890;4.726;2023-01-10T11:15:52;13.47;;;4.97;;
8803;SDS011;4438;50.890;4.726;2023-01-10T11:18:20;13.67;;;4.50;;
8803;SDS011;4438;50.890;4.726;2023-01-10T11:20:56;10.50;;;4.27;;
8803;SDS011;4438;50.890;4.726;2023-01-10T11:23:39;15.07;;;4.50;;
8803;SDS011;4438;50.890;4.726;2023-01-10T11:26:07;13.60;;;4.10;;
8803;SDS011;4438;50.890;4.726;2023-01-10T11:28:34;14.43;;;4.20;;
8803;SDS011;4438;50.890;4.726;2023-01-10T11:31:01;12.03;;;3.57;;
8803;SDS011;4438;50.890;4.726;2023-01-10T11:33:31;16.70;;;5.50;;
8803;SDS011;4438;50.890;4.726;2023-01-10T11:38:30;14.00;;;4.50;;
8803;SDS011;4438;50.890;4.726;2023-01-10T11:41:01;14.73;;;5.37;;
8803;SDS011;4438;50.890;4.726;2023-01-10T11:43:34;12.63;;;4.73;;
8803;SDS011;4438;50.890;4.726;2023-01-10T11:46:05;17.37;;;5.00;;
8803;SDS011;4438;50.890;4.726;2023-01-10T11:51:04;13.77;;;4.43;;
8803;SDS011;4438;50.890;4.726;2023-01-10T11:55:56;11.83;;;3.93;;
8803;SDS011;4438;50.890;4.726;2023-01-10T11:58:22;17.63;;;4.77;;
8803;SDS011;4438;50.890;4.726;2023-01-10T12:00:54;12.23;;;4.53;;
8803;SDS011;4438;50.890;4.726;2023-01-10T12:05:51;13.63;;;4.33;;
8803;SDS011;4438;50.890;4.726;2023-01-10T12:08:24;12.23;;;4.37;;
8803;SDS011;4438;50.890;4.726;2023-01-10T12:10:58;13.20;;;4.67;;
8803;SDS011;4438;50.890;4.726;2023-01-10T12:13:26;16.73;;;4.70;;
8803;SDS011;4438;50.890;4.726;2023-01-10T12:16:13;20.37;;;5.03;;
8803;SDS011;4438;50.890;4.726;2023-01-10T12:18:39;13.10;;;4.13;;
8803;SDS011;4438;50.890;4.726;2023-01-10T12:21:05;17.00;;;5.23;;
8803;SDS011;4438;50.890;4.726;2023-01-10T12:23:32;17.77;;;5.30;;
8803;SDS011;4438;50.890;4.726;2023-01-10T12:26:04;14.73;;;3.90;;
8803;SDS011;4438;50.890;4.726;2023-01-10T12:28:31;11.47;;;3.67;;
8803;SDS011;4438;50.890;4.726;2023-01-10T12:30:58;13.73;;;4.27;;
8803;SDS011;4438;50.890;4.726;2023-01-10T12:33:42;15.60;;;4.87;;
8803;SDS011;4438;50.890;4.726;2023-01-10T12:39:13;12.40;;;3.83;;
8803;SDS011;4438;50.890;4.726;2023-01-10T12:44:44;15.57;;;4.40;;
8803;SDS011;4438;50.890;4.726;2023-01-10T12:49:41;11.03;;;4.20;;
8803;SDS011;4438;50.890;4.726;2023-01-10T12:52:11;12.00;;;4.40;;
8803;SDS011;4438;50.890;4.726;2023-01-10T12:54:39;13.33;;;4.07;;
8803;SDS011;4438;50.890;4.726;2023-01-10T12:57:15;16.17;;;4.57;;
8803;SDS011;4438;50.890;4.726;2023-01-10T12:59:42;18.20;;;5.07;;
8803;SDS011;4438;50.890;4.726;2023-01-10T13:02:14;14.60;;;5.00;;
8803;SDS011;4438;50.890;4.726;2023-01-10T13:04:41;16.17;;;4.27;;
8803;SDS011;4438;50.890;4.726;2023-01-10T13:07:09;10.60;;;4.17;;
8803;SDS011;4438;50.890;4.726;2023-01-10T13:09:36;14.43;;;4.47;;
8803;SDS011;4438;50.890;4.726;2023-01-10T13:12:05;14.97;;;4.67;;
8803;SDS011;4438;50.890;4.726;2023-01-10T13:14:37;12.90;;;4.03;;
8803;SDS011;4438;50.890;4.726;2023-01-10T13:22:34;14.63;;;4.53;;
8803;SDS011;4438;50.890;4.726;2023-01-10T13:25:00;15.47;;;4.40;;
8803;SDS011;4438;50.890;4.726;2023-01-10T13:27:31;16.00;;;4.67;;
8803;SDS011;4438;50.890;4.726;2023-01-10T13:29:58;11.07;;;4.00;;
8803;SDS011;4438;50.890;4.726;2023-01-10T13:32:28;12.37;;;4.30;;
8803;SDS011;4438;50.890;4.726;2023-01-10T13:34:54;14.20;;;4.27;;
8803;SDS011;4438;50.890;4.726;2023-01-10T13:37:35;13.80;;;4.33;;
8803;SDS011;4438;50.890;4.726;2023-01-10T13:40:02;14.63;;;4.47;;
8803;SDS011;4438;50.890;4.726;2023-01-10T13:42:35;13.47;;;4.23;;
8803;SDS011;4438;50.890;4.726;2023-01-10T13:45:21;14.63;;;3.80;;
8803;SDS011;4438;50.890;4.726;2023-01-10T14:01:02;11.40;;;3.90;;
8803;SDS011;4438;50.890;4.726;2023-01-10T14:03:54;11.20;;;4.60;;
8803;SDS011;4438;50.890;4.726;2023-01-10T14:11:22;12.23;;;4.50;;
8803;SDS011;4438;50.890;4.726;2023-01-10T14:13:53;9.77;;;3.63;;
8803;SDS011;4438;50.890;4.726;2023-01-10T14:16:30;11.43;;;4.27;;
8803;SDS011;4438;50.890;4.726;2023-01-10T14:18:58;11.17;;;4.27;;
8803;SDS011;4438;50.890;4.726;2023-01-10T14:21:24;12.27;;;4.10;;
8803;SDS011;4438;50.890;4.726;2023-01-10T14:23:52;7.70;;;3.70;;
8803;SDS011;4438;50.890;4.726;2023-01-10T14:26:30;9.10;;;3.80;;
8803;SDS011;4438;50.890;4.726;2023-01-10T14:28:58;9.83;;;3.40;;
8803;SDS011;4438;50.890;4.726;2023-01-10T14:31:24;7.37;;;3.47;;
8803;SDS011;4438;50.890;4.726;2023-01-10T14:33:51;13.13;;;4.03;;
8803;SDS011;4438;50.890;4.726;2023-01-10T14:36:28;10.93;;;3.90;;
8803;SDS011;4438;50.890;4.726;2023-01-10T14:38:56;6.93;;;3.63;;
8803;SDS011;4438;50.890;4.726;2023-01-10T14:43:56;10.90;;;3.40;;
8803;SDS011;4438;50.890;4.726;2023-01-10T14:46:28;7.97;;;2.90;;
8803;SDS011;4438;50.890;4.726;2023-01-10T14:48:57;9.00;;;3.07;;
8803;SDS011;4438;50.890;4.726;2023-01-10T14:51:28;9.73;;;3.10;;
8803;SDS011;4438;50.890;4.726;2023-01-10T14:56:29;6.83;;;3.07;;
8803;SDS011;4438;50.890;4.726;2023-01-10T14:59:46;6.73;;;2.83;;
8803;SDS011;4438;50.890;4.726;2023-01-10T15:01:47;4.83;;;2.50;;
8803;SDS011;4438;50.890;4.726;2023-01-10T15:04:17;4.40;;;2.40;;
8803;SDS011;4438;50.890;4.726;2023-01-10T15:06:57;8.77;;;2.83;;
8803;SDS011;4438;50.890;4.726;2023-01-10T15:09:24;4.80;;;1.97;;
8803;SDS011;4438;50.890;4.726;2023-01-10T15:11:51;4.80;;;2.10;;
8803;SDS011;4438;50.890;4.726;2023-01-10T15:14:18;6.67;;;2.40;;
8803;SDS011;4438;50.890;4.726;2023-01-10T15:16:45;5.87;;;2.53;;
8803;SDS011;4438;50.890;4.726;2023-01-10T15:19:14;6.10;;;2.57;;
8803;SDS011;4438;50.890;4.726;2023-01-10T15:21:42;5.13;;;2.20;;
8803;SDS011;4438;50.890;4.726;2023-01-10T15:27:05;6.10;;;2.10;;
8803;SDS011;4438;50.890;4.726;2023-01-10T15:29:37;4.63;;;1.80;;
8803;SDS011;4438;50.890;4.726;2023-01-10T15:32:21;4.70;;;2.10;;
8803;SDS011;4438;50.890;4.726;2023-01-10T15:34:48;4.17;;;1.90;;
8803;SDS011;4438;50.890;4.726;2023-01-10T15:37:23;4.93;;;1.90;;
8803;SDS011;4438;50.890;4.726;2023-01-10T15:39:58;3.80;;;2.00;;
8803;SDS011;4438;50.890;4.726;2023-01-10T15:42:24;2.83;;;1.77;;
8803;SDS011;4438;50.890;4.726;2023-01-10T15:44:52;3.37;;;1.73;;
8803;SDS011;4438;50.890;4.726;2023-01-10T15:50:36;3.37;;;1.47;;
8803;SDS011;4438;50.890;4.726;2023-01-10T15:53:11;5.03;;;1.67;;
8803;SDS011;4438;50.890;4.726;2023-01-10T16:00:42;2.47;;;1.67;;
8803;SDS011;4438;50.890;4.726;2023-01-10T16:05:56;2.97;;;1.50;;
8803;SDS011;4438;50.890;4.726;2023-01-10T16:08:27;3.27;;;1.70;;
8803;SDS011;4438;50.890;4.726;2023-01-10T16:10:59;2.03;;;1.40;;
8803;SDS011;4438;50.890;4.726;2023-01-10T16:13:26;2.33;;;1.30;;
8803;SDS011;4438;50.890;4.726;2023-01-10T16:15:52;3.03;;;1.80;;
8803;SDS011;4438;50.890;4.726;2023-01-10T16:18:19;2.23;;;1.60;;
8803;SDS011;4438;50.890;4.726;2023-01-10T16:20:45;2.13;;;1.33;;
8803;SDS011;4438;50.890;4.726;2023-01-10T16:23:20;2.63;;;1.53;;
8803;SDS011;4438;50.890;4.726;2023-01-10T16:25:52;2.20;;;1.57;;
8803;SDS011;4438;50.890;4.726;2023-01-10T16:28:19;1.60;;;1.30;;
8803;SDS011;4438;50.890;4.726;2023-01-10T16:30:45;2.57;;;1.30;;
8803;SDS011;4438;50.890;4.726;2023-01-10T16:33:13;1.73;;;1.40;;
8803;SDS011;4438;50.890;4.726;2023-01-10T16:35:43;1.63;;;1.50;;
8803;SDS011;4438;50.890;4.726;2023-01-10T16:38:09;1.87;;;1.20;;
8803;SDS011;4438;50.890;4.726;2023-01-10T16:40:37;2.33;;;1.77;;
8803;SDS011;4438;50.890;4.726;2023-01-10T16:43:04;2.17;;;1.90;;
8803;SDS011;4438;50.890;4.726;2023-01-10T16:45:55;1.90;;;1.70;;
8803;SDS011;4438;50.890;4.726;2023-01-10T16:48:28;1.90;;;1.60;;
8803;SDS011;4438;50.890;4.726;2023-01-10T16:51:03;2.63;;;1.90;;
8803;SDS011;4438;50.890;4.726;2023-01-10T16:53:29;2.50;;;1.77;;
8803;SDS011;4438;50.890;4.726;2023-01-10T16:55:55;1.33;;;1.20;;
8803;SDS011;4438;50.890;4.726;2023-01-10T16:58:21;1.50;;;1.40;;
8803;SDS011;4438;50.890;4.726;2023-01-10T17:00:48;1.67;;;1.30;;
8803;SDS011;4438;50.890;4.726;2023-01-10T17:03:17;1.70;;;1.47;;
8803;SDS011;4438;50.890;4.726;2023-01-10T17:05:45;1.63;;;1.50;;
8803;SDS011;4438;50.890;4.726;2023-01-10T17:08:15;1.87;;;1.20;;